Freedom — WDD5438 — position and weather

sailwx.info

Track history (hours):
 
Tides and Currents Weather Stations Pressure Air Temp Water Temp Dewpoint Dewpoint Depression Visibility Wind Speed Wind Dir Waves Ship Positions

Freedom

Owner: DRISCOLL, ROBIN JOHN, LOS ALTOS HILLS, CA. More information available from US FCC via Universal Licensing System and Coast Guard Vessel Documentation Center.

Last reported at 2018-Apr-24 12:30 UTC. Time now 2018-Apr-24 12:49 UTC.
Position N 37°52' W 122°27'.

Length 17 m.

Type: Sailing vessel. MMSI: 367158390.

Date/timePositionNaut miles runAvg speedWind from/ knotsBaromVisibWave heightAir tempDewpointWater temp
2018-Apr-24 12:30N 37°52' W 122°27'0 0.6
2018-Apr-24 11:55N 37°52' W 122°28'0 0.0
2018-Apr-24 11:28N 37°52' W 122°28'0 0.0
2018-Apr-24 10:58N 37°52' W 122°28'0 0.0
2018-Apr-24 10:28N 37°52' W 122°28'0 0.0
2018-Apr-24 09:58N 37°52' W 122°28'0 0.0
2018-Apr-24 09:28N 37°52' W 122°28'0 0.0
2018-Apr-24 08:58N 37°52' W 122°28'0 0.0
2018-Apr-24 08:28N 37°52' W 122°28'0 0.0
2018-Apr-24 07:52N 37°52' W 122°28'0 0.0
2018-Apr-24 07:28N 37°52' W 122°28'0 0.0
2018-Apr-24 06:58N 37°52' W 122°28'0 0.0
2018-Apr-24 06:28N 37°52' W 122°28'0 0.0
2018-Apr-24 05:55N 37°52' W 122°28'0 0.0
2018-Apr-24 05:28N 37°52' W 122°28'0 0.0
2018-Apr-24 04:55N 37°52' W 122°28'0 0.0
2018-Apr-24 04:28N 37°52' W 122°28'0 0.0
2018-Apr-24 03:58N 37°52' W 122°28'0 0.0
2018-Apr-24 03:22N 37°52' W 122°28'0 0.0
2018-Apr-24 02:55N 37°52' W 122°28'0 0.0
2018-Apr-24 02:28N 37°52' W 122°28'0 0.0
2018-Apr-24 01:55N 37°52' W 122°28'0 0.0
2018-Apr-24 01:25N 37°52' W 122°28'0 0.0
2018-Apr-24 00:58N 37°52' W 122°28'0 0.0
2018-Apr-24 00:28N 37°52' W 122°28'0 0.0
2018-Apr-23 23:58N 37°52' W 122°28'0 0.0
2018-Apr-21 23:18N 37°52' W 122°28'0 0.0
2018-Apr-21 23:00N 37°52' W 122°28'1 2.4
2018-Apr-21 22:28N 37°51' W 122°27'0 0.1
2018-Apr-21 22:00N 37°51' W 122°27'0 0.5
2018-Apr-21 21:25N 37°51' W 122°27'0 0.5
2018-Apr-21 20:59N 37°52' W 122°27'1 1.2
2018-Apr-21 20:30N 37°51' W 122°27'0 0.6
2018-Apr-21 19:59N 37°51' W 122°27'1 1.1
2018-Apr-21 19:30N 37°51' W 122°27'0 0.6
2018-Apr-21 19:00N 37°51' W 122°27'1 2.3
2018-Apr-21 18:29N 37°52' W 122°27'0 0.6
2018-Apr-21 17:44N 37°52' W 122°28'0 0.0
2018-Apr-21 17:23N 37°52' W 122°28'0 0.0
2018-Apr-21 16:59N 37°52' W 122°28'  
2018-Apr-14 22:59N 37°52' W 122°28'1 1.8
2018-Apr-14 22:24N 37°51' W 122°28'2 3.8
2018-Apr-14 21:54N 37°50' W 122°28'1 2.7
2018-Apr-14 21:26N 37°49' W 122°30'1 1.5
2018-Apr-14 21:00N 37°49' W 122°29'2 3.7
2018-Apr-14 20:30N 37°49' W 122°27'0 0.9
2018-Apr-14 20:00N 37°49' W 122°27'0 0.7
2018-Apr-14 19:30N 37°49' W 122°27'4 7.0
2018-Apr-14 19:00N 37°52' W 122°27'0 0.3
2018-Apr-14 18:24N 37°52' W 122°28'  
Track history (hours):
 
Tides and Currents Weather Stations Pressure Air Temp Water Temp Dewpoint Dewpoint Depression Visibility Wind Speed Wind Dir Waves Ship Positions

Freedom

Owner: DRISCOLL, ROBIN JOHN, LOS ALTOS HILLS, CA. More information available from US FCC via Universal Licensing System and Coast Guard Vessel Documentation Center.

Last reported at 2018-Apr-24 12:30 UTC. Time now 2018-Apr-24 12:49 UTC.
Position N 37°52' W 122°27'.

Length 17 m.

Type: Sailing vessel. MMSI: 367158390.

Date/timePositionNaut miles runAvg speedWind from/ knotsBaromVisibWave heightAir tempDewpointWater temp
2018-Apr-24 12:30N 37°52' W 122°27'0 0.6
2018-Apr-24 11:55N 37°52' W 122°28'0 0.0
2018-Apr-24 11:28N 37°52' W 122°28'0 0.0
2018-Apr-24 10:58N 37°52' W 122°28'0 0.0
2018-Apr-24 10:28N 37°52' W 122°28'0 0.0
2018-Apr-24 09:58N 37°52' W 122°28'0 0.0
2018-Apr-24 09:28N 37°52' W 122°28'0 0.0
2018-Apr-24 08:58N 37°52' W 122°28'0 0.0
2018-Apr-24 08:28N 37°52' W 122°28'0 0.0
2018-Apr-24 07:52N 37°52' W 122°28'0 0.0
2018-Apr-24 07:28N 37°52' W 122°28'0 0.0
2018-Apr-24 06:58N 37°52' W 122°28'0 0.0
2018-Apr-24 06:28N 37°52' W 122°28'0 0.0
2018-Apr-24 05:55N 37°52' W 122°28'0 0.0
2018-Apr-24 05:28N 37°52' W 122°28'0 0.0
2018-Apr-24 04:55N 37°52' W 122°28'0 0.0
2018-Apr-24 04:28N 37°52' W 122°28'0 0.0
2018-Apr-24 03:58N 37°52' W 122°28'0 0.0
2018-Apr-24 03:22N 37°52' W 122°28'0 0.0
2018-Apr-24 02:55N 37°52' W 122°28'0 0.0
2018-Apr-24 02:28N 37°52' W 122°28'0 0.0
2018-Apr-24 01:55N 37°52' W 122°28'0 0.0
2018-Apr-24 01:25N 37°52' W 122°28'0 0.0
2018-Apr-24 00:58N 37°52' W 122°28'0 0.0
2018-Apr-24 00:28N 37°52' W 122°28'0 0.0
2018-Apr-23 23:58N 37°52' W 122°28'0 0.0
2018-Apr-21 23:18N 37°52' W 122°28'0 0.0
2018-Apr-21 23:00N 37°52' W 122°28'1 2.4
2018-Apr-21 22:28N 37°51' W 122°27'0 0.1
2018-Apr-21 22:00N 37°51' W 122°27'0 0.5
2018-Apr-21 21:25N 37°51' W 122°27'0 0.5
2018-Apr-21 20:59N 37°52' W 122°27'1 1.2
2018-Apr-21 20:30N 37°51' W 122°27'0 0.6
2018-Apr-21 19:59N 37°51' W 122°27'1 1.1
2018-Apr-21 19:30N 37°51' W 122°27'0 0.6
2018-Apr-21 19:00N 37°51' W 122°27'1 2.3
2018-Apr-21 18:29N 37°52' W 122°27'0 0.6
2018-Apr-21 17:44N 37°52' W 122°28'0 0.0
2018-Apr-21 17:23N 37°52' W 122°28'0 0.0
2018-Apr-21 16:59N 37°52' W 122°28'  
2018-Apr-14 22:59N 37°52' W 122°28'1 1.8
2018-Apr-14 22:24N 37°51' W 122°28'2 3.8
2018-Apr-14 21:54N 37°50' W 122°28'1 2.7
2018-Apr-14 21:26N 37°49' W 122°30'1 1.5
2018-Apr-14 21:00N 37°49' W 122°29'2 3.7
2018-Apr-14 20:30N 37°49' W 122°27'0 0.9
2018-Apr-14 20:00N 37°49' W 122°27'0 0.7
2018-Apr-14 19:30N 37°49' W 122°27'4 7.0
2018-Apr-14 19:00N 37°52' W 122°27'0 0.3
2018-Apr-14 18:24N 37°52' W 122°28'  

Dump ship's entire track history